createdAt,value
2023-03-31T00:01:53.001Z,13.22
2023-03-31T00:04:24.015Z,13.17
2023-03-31T00:06:54.274Z,13.16
2023-03-31T00:09:24.720Z,13.15
2023-03-31T00:11:52.651Z,13.24
2023-03-31T00:14:20.780Z,13.16
2023-03-31T00:16:47.496Z,13.17
2023-03-31T00:19:21.349Z,13.19
2023-03-31T00:21:49.165Z,13.28
2023-03-31T00:24:16.492Z,13.17
2023-03-31T00:26:43.846Z,13.16
2023-03-31T00:29:12.843Z,13.09
2023-03-31T00:31:39.480Z,13.16
2023-03-31T00:34:07.086Z,13.15
2023-03-31T00:36:36.901Z,13.20
2023-03-31T00:39:09.729Z,13.22
2023-03-31T00:41:39.291Z,13.18
2023-03-31T00:44:13.067Z,13.10
2023-03-31T00:46:52.528Z,13.10
2023-03-31T00:49:47.180Z,13.25
2023-03-31T00:52:30.650Z,13.26
2023-03-31T00:55:02.067Z,13.27
2023-03-31T00:57:33.829Z,13.09
2023-03-31T01:00:18.191Z,13.07
2023-03-31T01:02:53.286Z,12.91
2023-03-31T01:05:25.111Z,12.97
2023-03-31T01:07:52.960Z,12.88
2023-03-31T01:10:19.621Z,12.77
2023-03-31T01:12:51.046Z,12.69
2023-03-31T01:15:18.039Z,12.70
2023-03-31T01:17:45.440Z,12.72
2023-03-31T01:20:39.950Z,12.79
2023-03-31T01:23:29.740Z,12.96
2023-03-31T01:26:21.146Z,13.02
2023-03-31T01:29:34.133Z,12.95
2023-03-31T01:32:06.545Z,12.81
2023-03-31T01:34:35.777Z,12.81
2023-03-31T01:37:11.528Z,12.75
2023-03-31T01:39:53.065Z,12.74
2023-03-31T01:42:22.576Z,12.91
2023-03-31T01:45:12.499Z,12.96
2023-03-31T01:47:46.945Z,12.96
2023-03-31T01:50:19.737Z,12.93
2023-03-31T01:52:58.169Z,13.02
2023-03-31T01:55:40.546Z,12.96
2023-03-31T01:58:11.229Z,12.96
2023-03-31T02:00:51.874Z,12.89
2023-03-31T02:03:24.349Z,12.85
2023-03-31T02:05:55.646Z,12.88
2023-03-31T02:08:32.159Z,12.79
2023-03-31T02:10:59.306Z,13.02
2023-03-31T02:13:28.250Z,12.92
2023-03-31T02:16:01.535Z,12.73
2023-03-31T02:18:30.732Z,12.66
2023-03-31T02:20:59.855Z,12.66
2023-03-31T02:23:31.742Z,12.60
2023-03-31T02:26:06.434Z,12.46
2023-03-31T02:28:33.499Z,12.41
2023-03-31T02:31:09.388Z,12.46
2023-03-31T02:33:36.094Z,12.38
2023-03-31T02:36:03.070Z,12.32
2023-03-31T02:38:35.092Z,12.32
2023-03-31T02:41:01.654Z,12.36
2023-03-31T02:43:28.178Z,12.13
2023-03-31T02:45:54.694Z,12.13
2023-03-31T02:48:26.336Z,12.08
2023-03-31T02:51:08.838Z,12.11
2023-03-31T02:53:38.265Z,12.02
2023-03-31T02:56:32.630Z,12.05
2023-03-31T02:59:18.012Z,12.01
2023-03-31T03:02:08.486Z,12.02
2023-03-31T03:05:02.243Z,11.88
2023-03-31T03:07:39.084Z,11.72
2023-03-31T03:10:44.713Z,11.76
2023-03-31T03:13:28.619Z,11.68
2023-03-31T03:16:04.191Z,11.64
2023-03-31T03:18:31.067Z,11.56
2023-03-31T03:20:57.647Z,11.62
2023-03-31T03:23:24.166Z,11.70
2023-03-31T03:25:51.159Z,11.71
2023-03-31T03:28:17.746Z,11.60
2023-03-31T03:30:44.321Z,11.59
2023-03-31T03:33:11.108Z,11.52
2023-03-31T03:35:37.765Z,11.66
2023-03-31T03:38:04.296Z,11.55
2023-03-31T03:40:30.806Z,11.60
2023-03-31T03:42:57.327Z,11.46
2023-03-31T03:45:23.810Z,11.46
2023-03-31T03:47:50.316Z,11.69
2023-03-31T03:50:17.117Z,11.61
2023-03-31T03:52:44.039Z,11.59
2023-03-31T03:55:12.175Z,11.65
2023-03-31T03:57:38.731Z,11.56
2023-03-31T04:00:12.303Z,11.59
2023-03-31T04:02:40.081Z,11.71
2023-03-31T04:05:07.098Z,11.66
2023-03-31T04:07:33.675Z,11.72
2023-03-31T04:10:00.304Z,11.74
2023-03-31T04:12:26.811Z,11.69
2023-03-31T04:14:53.272Z,11.63
2023-03-31T04:17:32.432Z,11.74
2023-03-31T04:20:07.895Z,11.80
2023-03-31T04:22:40.803Z,11.84
2023-03-31T04:25:16.654Z,11.82
2023-03-31T04:27:54.729Z,11.80
2023-03-31T04:30:23.884Z,11.85
2023-03-31T04:32:55.929Z,11.91
2023-03-31T04:35:24.357Z,11.82
2023-03-31T04:37:58.620Z,12.05
2023-03-31T04:40:25.580Z,12.16
2023-03-31T04:42:52.337Z,12.27
2023-03-31T04:45:18.853Z,12.71
2023-03-31T04:47:45.461Z,13.19
2023-03-31T04:50:16.212Z,13.52
2023-03-31T04:52:43.780Z,13.79
2023-03-31T04:55:10.659Z,14.11
2023-03-31T04:57:37.360Z,14.31
2023-03-31T05:00:08.005Z,14.50
2023-03-31T05:02:35.028Z,14.68
2023-03-31T05:05:01.608Z,14.76
2023-03-31T05:07:28.155Z,14.80
2023-03-31T05:09:54.611Z,14.86
2023-03-31T05:12:21.609Z,14.82
2023-03-31T05:14:48.278Z,14.82
2023-03-31T05:17:14.968Z,14.84
2023-03-31T05:19:41.611Z,14.77
2023-03-31T05:22:08.119Z,14.65
2023-03-31T05:24:34.826Z,14.59
2023-03-31T05:27:01.280Z,14.51
2023-03-31T05:29:27.999Z,14.50
2023-03-31T05:31:54.531Z,14.51
2023-03-31T05:34:21.251Z,14.55
2023-03-31T05:36:53.485Z,14.58
2023-03-31T05:39:20.062Z,14.60
2023-03-31T05:41:46.601Z,14.63
2023-03-31T05:44:13.088Z,14.54
2023-03-31T05:46:39.810Z,14.47
2023-03-31T05:49:07.073Z,14.34
2023-03-31T05:51:34.053Z,14.22
2023-03-31T05:54:00.836Z,14.24
2023-03-31T05:56:27.609Z,14.21
2023-03-31T05:58:54.121Z,14.14
2023-03-31T06:01:22.931Z,14.12
2023-03-31T06:03:49.988Z,14.00
2023-03-31T06:06:16.714Z,14.06
2023-03-31T06:08:45.602Z,14.07
2023-03-31T06:11:14.988Z,14.16
2023-03-31T06:13:42.066Z,14.20
2023-03-31T06:16:11.172Z,14.26
2023-03-31T06:18:37.851Z,14.27
2023-03-31T06:21:05.666Z,14.05
2023-03-31T06:23:32.479Z,13.85
2023-03-31T06:26:06.326Z,13.41
2023-03-31T06:28:34.081Z,13.07
2023-03-31T06:31:12.735Z,12.94
2023-03-31T06:33:41.236Z,12.68
2023-03-31T06:36:08.710Z,12.56
2023-03-31T06:38:36.432Z,12.43
2023-03-31T06:41:03.064Z,12.23
2023-03-31T06:43:29.739Z,12.05
2023-03-31T06:45:56.810Z,11.99
2023-03-31T06:48:25.159Z,11.96
2023-03-31T06:50:53.642Z,12.06
2023-03-31T06:53:20.456Z,12.09
2023-03-31T06:55:46.919Z,12.49
2023-03-31T06:58:13.659Z,12.82
2023-03-31T07:00:40.942Z,12.76
2023-03-31T07:03:09.100Z,12.89
2023-03-31T07:05:35.821Z,13.23
2023-03-31T07:08:02.597Z,14.06
2023-03-31T07:10:31.478Z,13.70
2023-03-31T07:12:58.259Z,13.48
2023-03-31T07:15:25.944Z,13.40
2023-03-31T07:18:01.906Z,13.20
2023-03-31T07:20:30.326Z,12.79
2023-03-31T07:22:57.257Z,12.43
2023-03-31T07:25:23.878Z,12.26
2023-03-31T07:27:50.644Z,12.11
2023-03-31T07:30:19.408Z,12.14
2023-03-31T07:32:54.865Z,12.20
2023-03-31T07:35:22.933Z,13.40
2023-03-31T07:37:50.910Z,14.22
2023-03-31T07:40:30.418Z,14.80
2023-03-31T07:42:57.001Z,15.44
2023-03-31T07:45:26.076Z,16.10
2023-03-31T07:47:53.742Z,17.15
2023-03-31T07:50:21.119Z,17.36
2023-03-31T07:52:47.758Z,17.77
2023-03-31T07:55:15.550Z,18.01
2023-03-31T07:57:43.471Z,18.18
2023-03-31T08:00:12.711Z,18.29
2023-03-31T08:02:42.743Z,18.63
2023-03-31T08:05:12.032Z,18.97
2023-03-31T08:07:41.696Z,19.10
2023-03-31T08:10:11.574Z,19.62
2023-03-31T08:12:38.222Z,19.86
2023-03-31T08:15:05.362Z,19.28
2023-03-31T08:17:31.854Z,19.55
2023-03-31T08:20:01.651Z,20.22
2023-03-31T08:22:30.573Z,20.90
2023-03-31T08:24:57.082Z,21.54
2023-03-31T08:27:23.708Z,21.46
2023-03-31T08:29:50.196Z,21.81
2023-03-31T08:32:16.737Z,22.55
2023-03-31T08:34:43.259Z,21.45
2023-03-31T08:37:10.429Z,20.23
2023-03-31T08:39:37.311Z,19.45
2023-03-31T08:42:25.625Z,20.22
2023-03-31T08:45:39.682Z,19.50
2023-03-31T08:48:26.383Z,18.48
2023-03-31T08:51:01.289Z,18.88
2023-03-31T08:53:52.086Z,17.58
2023-03-31T08:56:22.874Z,17.04
2023-03-31T08:58:50.932Z,16.26
2023-03-31T09:01:55.615Z,16.15
2023-03-31T09:04:25.900Z,15.68
2023-03-31T09:07:15.110Z,15.71
2023-03-31T09:10:00.155Z,16.91
2023-03-31T09:12:42.604Z,17.67
2023-03-31T09:15:21.022Z,18.97
2023-03-31T09:17:51.598Z,20.16
2023-03-31T09:20:29.219Z,20.51
2023-03-31T09:23:38.545Z,19.34
2023-03-31T09:26:07.061Z,20.00
2023-03-31T09:28:40.325Z,21.21
2023-03-31T09:31:18.053Z,20.73
2023-03-31T09:33:48.343Z,19.58
2023-03-31T09:36:17.450Z,20.18
2023-03-31T09:38:45.686Z,21.30
2023-03-31T09:41:14.193Z,21.50
2023-03-31T09:43:42.260Z,21.88
2023-03-31T09:46:36.807Z,20.09
2023-03-31T09:49:15.447Z,19.93
2023-03-31T09:51:46.117Z,20.66
2023-03-31T09:54:29.390Z,20.76
2023-03-31T09:56:55.871Z,21.96
2023-03-31T09:59:41.329Z,22.62
2023-03-31T10:02:28.599Z,22.22
2023-03-31T10:04:55.490Z,22.73
2023-03-31T10:07:24.413Z,23.52
2023-03-31T10:09:52.324Z,23.98
2023-03-31T10:12:25.660Z,23.83
2023-03-31T10:14:54.506Z,23.59
2023-03-31T10:17:23.953Z,22.57
2023-03-31T10:19:59.216Z,22.07
2023-03-31T10:22:31.024Z,22.70
2023-03-31T10:25:14.603Z,21.16
2023-03-31T10:27:42.304Z,19.89
2023-03-31T10:30:12.257Z,20.27
2023-03-31T10:32:43.227Z,20.80
2023-03-31T10:35:24.549Z,21.38
2023-03-31T10:37:54.722Z,20.91
2023-03-31T10:40:24.733Z,19.58
2023-03-31T10:43:01.489Z,19.84
2023-03-31T10:45:37.049Z,20.59
2023-03-31T10:48:07.047Z,21.80
2023-03-31T10:50:36.576Z,22.17
2023-03-31T10:53:13.421Z,22.30
2023-03-31T10:55:44.310Z,21.00
2023-03-31T10:58:26.972Z,21.62
2023-03-31T11:01:30.035Z,22.04
2023-03-31T11:04:32.151Z,22.09
2023-03-31T11:07:40.772Z,21.96
2023-03-31T11:10:28.943Z,21.53
2023-03-31T11:13:01.212Z,21.59
2023-03-31T11:15:51.296Z,20.84
2023-03-31T11:18:39.276Z,21.98
2023-03-31T11:21:43.364Z,22.60
2023-03-31T11:24:34.641Z,21.75
2023-03-31T11:27:06.821Z,21.23
2023-03-31T11:30:11.849Z,20.70
2023-03-31T11:32:47.768Z,19.51
2023-03-31T11:35:43.795Z,18.39
2023-03-31T11:38:44.634Z,17.77
2023-03-31T11:41:15.712Z,17.27
2023-03-31T11:43:45.059Z,15.00
2023-03-31T11:46:22.845Z,13.90
2023-03-31T11:48:59.216Z,12.94
2023-03-31T11:51:38.792Z,13.21
2023-03-31T11:54:12.158Z,13.58
2023-03-31T11:56:41.445Z,14.13
2023-03-31T11:59:14.881Z,14.72
2023-03-31T12:01:54.391Z,16.81
2023-03-31T12:04:40.366Z,18.09
2023-03-31T12:07:46.552Z,19.56
2023-03-31T12:10:38.986Z,20.39
2023-03-31T12:13:24.845Z,21.02
2023-03-31T12:16:02.707Z,21.47
2023-03-31T12:18:35.994Z,21.88
2023-03-31T12:21:04.864Z,22.31
2023-03-31T12:23:38.675Z,22.65
2023-03-31T12:26:26.661Z,22.59
2023-03-31T12:28:59.315Z,21.08
2023-03-31T12:31:28.525Z,20.70
2023-03-31T12:34:02.620Z,19.84
2023-03-31T12:36:52.952Z,18.59
2023-03-31T12:39:50.692Z,18.67
2023-03-31T12:42:38.693Z,18.45
2023-03-31T12:45:31.360Z,19.10
2023-03-31T12:48:14.086Z,19.15
2023-03-31T12:50:55.423Z,20.05
2023-03-31T12:53:40.253Z,20.03
2023-03-31T12:56:07.052Z,19.74
2023-03-31T12:58:42.947Z,19.60
2023-03-31T13:01:14.437Z,19.13
2023-03-31T13:03:54.680Z,20.56
2023-03-31T13:06:30.460Z,21.31
2023-03-31T13:09:08.510Z,22.05
2023-03-31T13:11:39.552Z,22.01
2023-03-31T13:14:12.054Z,21.75
2023-03-31T13:16:38.903Z,22.37
2023-03-31T13:19:06.264Z,22.98
2023-03-31T13:21:52.937Z,22.02
2023-03-31T13:24:23.611Z,20.77
2023-03-31T13:26:51.772Z,19.87
2023-03-31T13:29:20.711Z,19.57
2023-03-31T13:32:02.371Z,18.87
2023-03-31T13:34:35.928Z,18.28
2023-03-31T13:37:11.300Z,17.92
2023-03-31T13:39:58.001Z,17.87
2023-03-31T13:42:27.507Z,17.83
2023-03-31T13:45:16.148Z,17.73
2023-03-31T13:47:48.702Z,17.29
2023-03-31T13:50:30.612Z,17.29
2023-03-31T13:52:57.016Z,17.15
2023-03-31T13:55:41.269Z,16.64
2023-03-31T13:58:34.656Z,16.20
2023-03-31T14:01:36.466Z,15.65
2023-03-31T14:04:48.067Z,14.54
2023-03-31T14:07:21.199Z,12.95
2023-03-31T14:09:50.651Z,12.12
2023-03-31T14:12:23.117Z,11.59
2023-03-31T14:14:53.788Z,11.54
2023-03-31T14:17:22.230Z,11.15
2023-03-31T14:20:13.662Z,11.19
2023-03-31T14:22:57.799Z,11.19
2023-03-31T14:25:43.004Z,11.24
2023-03-31T14:28:27.884Z,11.40
2023-03-31T14:31:21.438Z,11.58
2023-03-31T14:33:50.812Z,12.12
2023-03-31T14:36:39.630Z,12.83
2023-03-31T14:39:11.684Z,13.39
2023-03-31T14:41:38.348Z,13.77
2023-03-31T14:44:07.194Z,13.89
2023-03-31T14:46:38.672Z,13.91
2023-03-31T14:49:24.014Z,13.83
2023-03-31T14:51:53.334Z,13.56
2023-03-31T14:54:21.168Z,13.48
2023-03-31T14:56:51.142Z,13.28
2023-03-31T14:59:26.063Z,12.93
2023-03-31T15:01:52.747Z,12.67
2023-03-31T15:04:31.972Z,12.45
2023-03-31T15:07:06.474Z,12.30
2023-03-31T15:09:36.332Z,12.27
2023-03-31T15:12:07.301Z,12.23
2023-03-31T15:14:45.691Z,11.96
2023-03-31T15:17:28.079Z,12.03
2023-03-31T15:20:19.207Z,12.30
2023-03-31T15:22:46.666Z,12.46
2023-03-31T15:25:16.799Z,12.61
2023-03-31T15:27:56.480Z,12.58
2023-03-31T15:30:25.528Z,12.63
2023-03-31T15:32:56.926Z,12.65
2023-03-31T15:35:33.886Z,12.66
2023-03-31T15:38:02.565Z,12.70
2023-03-31T15:40:32.636Z,12.71
2023-03-31T15:43:20.229Z,12.86
2023-03-31T15:46:01.649Z,13.02
2023-03-31T15:48:33.925Z,13.35
2023-03-31T15:51:17.820Z,13.47
2023-03-31T15:53:45.647Z,13.55
2023-03-31T15:56:36.022Z,13.47
2023-03-31T15:59:21.516Z,13.53
2023-03-31T16:01:50.106Z,13.58
2023-03-31T16:04:17.228Z,13.48
2023-03-31T16:06:43.818Z,13.57
2023-03-31T16:09:38.288Z,13.62
2023-03-31T16:12:14.576Z,13.58
2023-03-31T16:14:51.554Z,13.89
2023-03-31T16:17:31.448Z,14.16
2023-03-31T16:20:10.946Z,14.45
2023-03-31T16:22:45.012Z,14.38
2023-03-31T16:25:15.398Z,14.45
2023-03-31T16:27:46.697Z,14.35
2023-03-31T16:30:34.913Z,14.42
2023-03-31T16:33:05.592Z,14.43
2023-03-31T16:35:43.107Z,14.49
2023-03-31T16:38:12.057Z,14.52
2023-03-31T16:40:41.450Z,14.49
2023-03-31T16:43:21.241Z,14.33
2023-03-31T16:45:50.418Z,14.24
2023-03-31T16:48:18.857Z,14.06
2023-03-31T16:50:47.621Z,14.04
2023-03-31T16:53:15.266Z,14.01
2023-03-31T16:55:42.453Z,13.81
2023-03-31T16:58:09.343Z,13.73
2023-03-31T17:00:36.668Z,13.87
2023-03-31T17:03:05.056Z,13.87
2023-03-31T17:05:33.126Z,13.75
2023-03-31T17:08:00.246Z,13.66
2023-03-31T17:10:26.944Z,13.57
2023-03-31T17:12:53.400Z,13.55
2023-03-31T17:15:20.349Z,13.59
2023-03-31T17:17:47.705Z,13.50
2023-03-31T17:20:14.485Z,13.30
2023-03-31T17:22:41.659Z,13.23
2023-03-31T17:25:08.665Z,13.07
2023-03-31T17:27:35.891Z,12.88
2023-03-31T17:30:02.805Z,12.46
2023-03-31T17:32:29.841Z,12.39
2023-03-31T17:34:56.469Z,12.40
2023-03-31T17:37:22.983Z,12.34
2023-03-31T17:39:49.458Z,12.18
2023-03-31T17:42:16.689Z,12.09
2023-03-31T17:44:43.223Z,11.85
2023-03-31T17:47:09.935Z,11.90
2023-03-31T17:49:36.416Z,11.80
2023-03-31T17:52:02.940Z,11.70
2023-03-31T17:54:29.463Z,11.77
2023-03-31T17:56:56.254Z,11.76
2023-03-31T17:59:24.001Z,11.86
2023-03-31T18:01:50.694Z,11.80
2023-03-31T18:04:17.382Z,11.80
2023-03-31T18:06:44.848Z,11.74
2023-03-31T18:09:11.692Z,11.70
2023-03-31T18:11:38.723Z,11.69
2023-03-31T18:14:05.293Z,11.61
2023-03-31T18:16:32.329Z,11.54
2023-03-31T18:18:58.924Z,11.57
2023-03-31T18:21:25.842Z,11.45
2023-03-31T18:23:52.699Z,11.48
2023-03-31T18:26:19.715Z,11.53
2023-03-31T18:28:46.486Z,11.51
2023-03-31T18:31:13.471Z,11.42
2023-03-31T18:33:40.755Z,11.41
2023-03-31T18:36:08.586Z,11.32
2023-03-31T18:38:36.942Z,11.19
2023-03-31T18:41:03.604Z,11.07
2023-03-31T18:43:32.004Z,11.01
2023-03-31T18:46:01.292Z,11.08
2023-03-31T18:48:28.287Z,11.12
2023-03-31T18:50:54.871Z,11.23
2023-03-31T18:53:23.157Z,11.26
2023-03-31T18:55:51.118Z,11.28
2023-03-31T18:58:18.044Z,11.32
2023-03-31T19:00:45.366Z,11.29
2023-03-31T19:03:13.709Z,11.25
2023-03-31T19:05:40.374Z,11.35
2023-03-31T19:08:07.261Z,11.37
2023-03-31T19:10:34.185Z,11.49
2023-03-31T19:13:00.753Z,11.46
2023-03-31T19:15:27.825Z,11.47
2023-03-31T19:17:55.094Z,11.52
2023-03-31T19:20:21.685Z,11.52
2023-03-31T19:22:50.832Z,11.49
2023-03-31T19:25:19.181Z,11.50
2023-03-31T19:27:46.281Z,11.42
2023-03-31T19:30:19.954Z,11.30
2023-03-31T19:32:48.849Z,11.36
2023-03-31T19:35:18.783Z,11.36
2023-03-31T19:37:46.088Z,11.43
2023-03-31T19:40:13.484Z,11.51
2023-03-31T19:42:42.151Z,11.52
2023-03-31T19:45:09.277Z,11.45
2023-03-31T19:47:35.874Z,11.34
2023-03-31T19:50:02.513Z,11.35
2023-03-31T19:52:29.826Z,11.40
2023-03-31T19:54:56.353Z,11.36
2023-03-31T19:57:24.386Z,11.37
2023-03-31T19:59:51.259Z,11.38
2023-03-31T20:02:18.396Z,11.43
2023-03-31T20:04:45.444Z,11.47
2023-03-31T20:07:12.053Z,11.53
2023-03-31T20:09:38.651Z,11.49
2023-03-31T20:12:05.456Z,11.39
2023-03-31T20:14:32.035Z,11.38
2023-03-31T20:17:01.052Z,11.29
2023-03-31T20:19:27.791Z,11.31
2023-03-31T20:21:54.309Z,11.37
2023-03-31T20:24:21.496Z,11.33
2023-03-31T20:26:48.286Z,11.37
2023-03-31T20:29:14.992Z,11.35
2023-03-31T20:31:41.807Z,11.42
2023-03-31T20:34:14.032Z,11.39
2023-03-31T20:36:42.453Z,11.40
2023-03-31T20:39:09.312Z,11.39
2023-03-31T20:41:40.212Z,11.43
2023-03-31T20:44:12.010Z,11.42
2023-03-31T20:46:40.758Z,11.42
2023-03-31T20:49:07.796Z,11.41
2023-03-31T20:51:37.583Z,11.41
2023-03-31T20:54:05.358Z,11.48
2023-03-31T20:56:40.396Z,11.40
2023-03-31T20:59:09.867Z,11.41
2023-03-31T21:01:37.323Z,11.41
2023-03-31T21:04:06.688Z,11.36
2023-03-31T21:06:42.108Z,11.43
2023-03-31T21:09:11.606Z,11.51
2023-03-31T21:11:40.319Z,11.56
2023-03-31T21:14:07.300Z,11.54
2023-03-31T21:16:33.922Z,11.62
2023-03-31T21:19:00.573Z,11.57
2023-03-31T21:21:28.002Z,11.61
2023-03-31T21:23:54.836Z,11.61
2023-03-31T21:26:22.153Z,11.62
2023-03-31T21:28:54.228Z,11.52
2023-03-31T21:31:24.122Z,11.60
2023-03-31T21:33:52.691Z,11.59
2023-03-31T21:36:22.411Z,11.58
2023-03-31T21:38:50.127Z,11.60
2023-03-31T21:41:26.520Z,11.60
2023-03-31T21:43:53.768Z,11.61
2023-03-31T21:46:27.344Z,11.57
2023-03-31T21:48:54.397Z,11.57
2023-03-31T21:51:22.240Z,11.59
2023-03-31T21:53:50.204Z,11.60
2023-03-31T21:56:17.065Z,11.63
2023-03-31T21:58:43.634Z,11.64
2023-03-31T22:01:10.616Z,11.60
2023-03-31T22:03:38.386Z,11.57
2023-03-31T22:06:09.515Z,11.58
2023-03-31T22:08:38.937Z,11.58
2023-03-31T22:11:07.797Z,11.61
2023-03-31T22:13:35.348Z,11.57
2023-03-31T22:16:02.947Z,11.59
2023-03-31T22:18:30.615Z,11.53
2023-03-31T22:20:57.782Z,11.58
2023-03-31T22:23:24.839Z,11.43
2023-03-31T22:25:51.431Z,11.47
2023-03-31T22:28:17.996Z,11.43
2023-03-31T22:30:44.708Z,11.48
2023-03-31T22:33:12.037Z,11.40
2023-03-31T22:35:38.721Z,11.46
2023-03-31T22:38:06.551Z,11.36
2023-03-31T22:40:34.857Z,11.14
2023-03-31T22:43:01.612Z,10.52
2023-03-31T22:45:28.275Z,10.17
2023-03-31T22:47:54.975Z,9.84
2023-03-31T22:50:21.616Z,9.70
2023-03-31T22:52:48.153Z,9.55
2023-03-31T22:55:14.752Z,9.33
2023-03-31T22:57:41.403Z,9.35
2023-03-31T23:00:09.243Z,9.30
2023-03-31T23:02:35.903Z,9.21
2023-03-31T23:05:02.445Z,9.21
2023-03-31T23:07:29.838Z,9.14
2023-03-31T23:09:56.377Z,9.12
2023-03-31T23:12:25.839Z,9.09
2023-03-31T23:14:52.501Z,9.02
2023-03-31T23:17:19.342Z,8.97
2023-03-31T23:19:47.581Z,8.94
2023-03-31T23:22:14.848Z,8.95
2023-03-31T23:24:41.495Z,9.01
2023-03-31T23:27:08.625Z,9.07
2023-03-31T23:29:35.704Z,9.08
2023-03-31T23:32:02.910Z,9.16
2023-03-31T23:34:29.473Z,9.10
2023-03-31T23:36:55.938Z,9.21
2023-03-31T23:39:22.635Z,9.35
2023-03-31T23:41:49.157Z,9.35
2023-03-31T23:44:15.756Z,9.41
2023-03-31T23:46:44.181Z,9.39
2023-03-31T23:49:11.776Z,9.45
2023-03-31T23:51:38.322Z,9.52
2023-03-31T23:54:04.855Z,9.48
2023-03-31T23:56:31.351Z,9.57
2023-03-31T23:58:57.925Z,9.59
